createdAt,value
2018-03-20T00:02:27.297Z,26.40
2018-03-20T00:04:54.756Z,28.07
2018-03-20T00:07:23.025Z,27.23
2018-03-20T00:09:50.484Z,30.20
2018-03-20T00:12:17.951Z,20.90
2018-03-20T00:14:45.390Z,25.23
2018-03-20T00:17:12.853Z,23.40
2018-03-20T00:19:40.305Z,25.73
2018-03-20T00:22:07.783Z,24.80
2018-03-20T00:24:35.243Z,25.77
2018-03-20T00:27:02.714Z,24.30
2018-03-20T00:29:30.161Z,20.63
2018-03-20T00:31:57.627Z,22.20
2018-03-20T00:34:25.080Z,27.07
2018-03-20T00:36:52.545Z,19.73
2018-03-20T00:39:20.755Z,21.03
2018-03-20T00:41:48.208Z,23.27
2018-03-20T00:44:15.685Z,21.67
2018-03-20T00:46:43.146Z,21.13
2018-03-20T00:49:10.598Z,23.50
2018-03-20T00:51:38.052Z,23.57
2018-03-20T00:54:05.518Z,24.80
2018-03-20T00:56:33.781Z,23.33
2018-03-20T00:59:01.253Z,22.57
2018-03-20T01:01:28.710Z,24.13
2018-03-20T01:03:56.182Z,24.13
2018-03-20T01:06:23.659Z,23.23
2018-03-20T01:08:51.128Z,23.20
2018-03-20T01:11:19.345Z,22.00
2018-03-20T01:13:48.057Z,25.35
2018-03-20T01:16:15.519Z,22.57
2018-03-20T01:18:42.982Z,21.37
2018-03-20T01:21:10.470Z,22.93
2018-03-20T01:23:38.687Z,25.07
2018-03-20T01:26:06.149Z,23.48
2018-03-20T01:28:33.612Z,22.40
2018-03-20T01:31:01.076Z,24.23
2018-03-20T01:33:28.539Z,21.57
2018-03-20T01:35:57.184Z,22.77
2018-03-20T01:38:24.643Z,22.63
2018-03-20T01:40:52.124Z,26.00
2018-03-20T01:43:19.595Z,17.83
2018-03-20T01:45:47.045Z,24.20
2018-03-20T01:48:14.517Z,31.02
2018-03-20T01:50:41.973Z,22.87
2018-03-20T01:53:18.339Z,23.80
2018-03-20T01:55:45.783Z,22.43
2018-03-20T01:58:13.249Z,26.50
2018-03-20T02:00:40.736Z,22.27
2018-03-20T02:03:08.189Z,19.30
2018-03-20T02:05:36.396Z,22.77
2018-03-20T02:08:03.861Z,21.77
2018-03-20T02:10:31.312Z,23.50
2018-03-20T02:12:58.799Z,24.43
2018-03-20T02:15:26.268Z,26.20
2018-03-20T02:17:53.734Z,25.23
2018-03-20T02:20:21.193Z,24.00
2018-03-20T02:22:48.643Z,19.60
2018-03-20T02:25:16.111Z,23.40
2018-03-20T02:27:43.569Z,27.23
2018-03-20T02:30:11.033Z,25.17
2018-03-20T02:32:38.477Z,25.13
2018-03-20T02:35:06.078Z,26.80
2018-03-20T02:37:33.564Z,21.83
2018-03-20T02:40:01.015Z,24.43
2018-03-20T02:42:28.485Z,23.83
2018-03-20T02:44:55.950Z,20.73
2018-03-20T02:47:23.408Z,24.93
2018-03-20T02:49:50.865Z,25.60
2018-03-20T02:52:20.117Z,21.47
2018-03-20T02:54:47.608Z,22.07
2018-03-20T02:57:15.078Z,25.70
2018-03-20T02:59:42.537Z,25.23
2018-03-20T03:02:09.993Z,22.53
2018-03-20T03:04:37.463Z,20.85
2018-03-20T03:07:04.912Z,20.90
2018-03-20T03:09:33.141Z,18.47
2018-03-20T03:12:00.588Z,25.27
2018-03-20T03:14:28.060Z,19.87
2018-03-20T03:16:55.512Z,20.87
2018-03-20T03:19:22.978Z,18.30
2018-03-20T03:21:50.443Z,22.47
2018-03-20T03:24:17.907Z,22.90
2018-03-20T03:26:45.376Z,19.57
2018-03-20T03:29:12.839Z,20.23
2018-03-20T03:31:40.298Z,19.07
2018-03-20T03:34:07.766Z,19.40
2018-03-20T03:36:35.227Z,19.53
2018-03-20T03:39:02.686Z,19.30
2018-03-20T03:41:30.133Z,21.87
2018-03-20T03:43:57.605Z,20.93
2018-03-20T03:46:25.076Z,22.63
2018-03-20T03:48:53.303Z,20.50
2018-03-20T03:51:20.762Z,17.87
2018-03-20T03:53:48.221Z,22.17
2018-03-20T03:56:15.839Z,23.27
2018-03-20T03:58:44.093Z,22.40
2018-03-20T04:01:11.609Z,24.67
2018-03-20T04:03:39.073Z,22.37
2018-03-20T04:06:06.525Z,20.10
2018-03-20T04:08:33.980Z,22.13
2018-03-20T04:11:01.474Z,21.70
2018-03-20T04:13:28.936Z,22.00
2018-03-20T04:15:56.417Z,20.93
2018-03-20T04:18:24.630Z,22.57
2018-03-20T04:20:52.097Z,19.37
2018-03-20T04:23:19.550Z,24.77
2018-03-20T04:25:47.012Z,17.70
2018-03-20T04:28:14.475Z,22.70
2018-03-20T04:30:41.937Z,22.50
2018-03-20T04:33:09.398Z,20.53
2018-03-20T04:35:38.382Z,24.20
2018-03-20T04:38:05.833Z,22.40
2018-03-20T04:40:33.294Z,20.33
2018-03-20T04:43:00.752Z,21.60
2018-03-20T04:45:28.219Z,22.87
2018-03-20T04:47:55.670Z,23.53
2018-03-20T04:50:23.131Z,26.50
2018-03-20T04:52:50.584Z,22.30
2018-03-20T04:55:18.041Z,25.48
2018-03-20T04:57:45.509Z,23.67
2018-03-20T05:00:13.742Z,21.07
2018-03-20T05:02:41.188Z,22.87
2018-03-20T05:05:08.734Z,21.92
2018-03-20T05:07:36.175Z,22.30
2018-03-20T05:10:03.632Z,26.47
2018-03-20T05:12:31.099Z,25.50
2018-03-20T05:14:58.569Z,21.97
2018-03-20T05:17:26.017Z,21.50
2018-03-20T05:33:14.285Z,31.10
2018-03-20T05:35:41.768Z,25.45
2018-03-20T05:38:09.254Z,25.63
2018-03-20T05:40:36.726Z,28.40
2018-03-20T05:43:04.947Z,23.37
2018-03-20T05:45:32.413Z,24.03
2018-03-20T06:01:23.416Z,23.33
2018-03-20T06:03:50.877Z,22.50
2018-03-20T06:06:18.349Z,23.90
2018-03-20T06:08:45.814Z,25.20
2018-03-20T06:11:13.278Z,27.90
2018-03-20T06:13:41.494Z,28.70
2018-03-20T06:16:09.982Z,40.20
2018-03-20T06:18:37.441Z,123.10
2018-03-20T06:21:04.910Z,110.37
2018-03-20T06:23:32.372Z,73.47
2018-03-20T06:25:59.846Z,35.65
2018-03-20T06:28:28.069Z,32.10
2018-03-20T06:30:55.532Z,27.23
2018-03-20T06:33:23.011Z,23.70
2018-03-20T06:35:50.472Z,24.00
2018-03-20T06:38:17.928Z,24.60
2018-03-20T06:40:45.404Z,28.13
2018-03-20T06:43:12.879Z,26.30
2018-03-20T06:45:41.116Z,32.63
2018-03-20T06:48:08.587Z,25.10
2018-03-20T06:50:36.036Z,27.87
2018-03-20T06:53:03.513Z,26.70
2018-03-20T06:55:32.475Z,26.03
2018-03-20T06:57:59.953Z,25.80
2018-03-20T07:00:27.454Z,28.30
2018-03-20T07:02:54.881Z,29.23
2018-03-20T07:05:22.386Z,28.57
2018-03-20T07:07:49.859Z,29.60
2018-03-20T07:10:17.304Z,29.27
2018-03-20T07:12:44.805Z,28.10
2018-03-20T07:15:12.360Z,24.40
2018-03-20T07:17:39.908Z,26.80
2018-03-20T07:20:07.361Z,30.77
2018-03-20T07:22:34.825Z,27.20
2018-03-20T07:25:02.294Z,22.93
2018-03-20T07:27:29.761Z,26.67
2018-03-20T07:29:57.218Z,25.43
2018-03-20T07:32:24.726Z,26.00
2018-03-20T07:34:52.181Z,26.37
2018-03-20T07:37:19.644Z,27.93
2018-03-20T07:39:47.143Z,25.90
2018-03-20T07:42:14.607Z,27.80
2018-03-20T07:44:43.567Z,24.77
2018-03-20T07:47:11.041Z,25.40
2018-03-20T07:49:38.517Z,26.63
2018-03-20T07:52:05.986Z,26.90
2018-03-20T07:54:34.211Z,25.90
2018-03-20T07:57:01.667Z,25.27
2018-03-20T07:59:29.132Z,28.27
2018-03-20T08:01:56.588Z,24.80
2018-03-20T08:04:24.060Z,30.88
2018-03-20T08:06:51.516Z,30.90
2018-03-20T08:09:18.982Z,29.10
2018-03-20T08:11:46.434Z,24.37
2018-03-20T08:14:13.912Z,24.77
2018-03-20T08:16:42.137Z,26.80
2018-03-20T08:19:09.681Z,25.50
2018-03-20T08:21:37.090Z,21.40
2018-03-20T08:24:04.548Z,24.63
2018-03-20T08:26:32.782Z,25.47
2018-03-20T08:29:00.257Z,27.13
2018-03-20T08:31:27.768Z,26.15
2018-03-20T08:33:55.184Z,27.30
2018-03-20T08:36:22.656Z,23.30
2018-03-20T08:38:50.149Z,26.37
2018-03-20T08:41:17.617Z,27.27
2018-03-20T08:43:45.080Z,33.10
2018-03-20T08:46:12.544Z,31.53
2018-03-20T08:48:40.019Z,26.92
2018-03-20T08:51:07.469Z,29.20
2018-03-20T08:53:34.959Z,28.37
2018-03-20T08:56:02.421Z,24.80
2018-03-20T08:58:29.885Z,33.87
2018-03-20T09:00:58.102Z,25.90
2018-03-20T09:03:25.565Z,26.33
2018-03-20T09:05:53.033Z,26.00
2018-03-20T09:08:20.499Z,25.00
2018-03-20T09:10:47.961Z,27.80
2018-03-20T09:13:15.420Z,29.03
2018-03-20T09:15:42.867Z,28.50
2018-03-20T09:18:10.421Z,32.60
2018-03-20T09:20:37.902Z,24.80
2018-03-20T09:23:06.135Z,28.60
2018-03-20T09:25:33.592Z,32.40
2018-03-20T09:28:01.036Z,27.20
2018-03-20T09:30:28.515Z,36.07
2018-03-20T09:32:55.968Z,29.73
2018-03-20T09:35:23.909Z,24.37
2018-03-20T09:37:51.334Z,26.87
2018-03-20T09:40:19.568Z,30.73
2018-03-20T09:42:47.221Z,29.60
2018-03-20T09:45:14.690Z,29.43
2018-03-20T09:47:42.139Z,31.20
2018-03-20T09:50:09.595Z,22.77
2018-03-20T09:52:37.062Z,37.17
2018-03-20T09:55:04.514Z,25.27
2018-03-20T09:57:31.990Z,27.90
2018-03-20T09:59:59.445Z,23.93
2018-03-20T10:02:26.897Z,25.57
2018-03-20T10:04:54.356Z,28.23
2018-03-20T10:07:21.832Z,26.57
2018-03-20T10:09:49.297Z,24.23
2018-03-20T10:12:17.458Z,25.83
2018-03-20T10:14:44.917Z,22.47
2018-03-20T10:17:12.365Z,22.75
2018-03-20T10:19:39.843Z,24.17
2018-03-20T10:22:07.389Z,26.73
2018-03-20T10:24:34.859Z,25.43
2018-03-20T10:27:02.321Z,24.03
2018-03-20T10:29:29.901Z,26.00
2018-03-20T10:31:58.150Z,24.90
2018-03-20T10:34:25.626Z,15.80
2018-03-20T10:36:53.827Z,23.63
2018-03-20T10:39:21.311Z,17.67
2018-03-20T10:41:48.762Z,19.27
2018-03-20T10:46:50.757Z,17.40
2018-03-20T10:49:18.326Z,18.60
2018-03-20T10:51:45.791Z,20.73
2018-03-20T10:54:13.241Z,15.53
2018-03-20T10:56:40.688Z,14.97
2018-03-20T10:59:08.164Z,14.93
2018-03-20T11:01:41.298Z,17.30
2018-03-20T11:04:09.528Z,18.00
2018-03-20T11:06:36.985Z,18.30
2018-03-20T11:09:04.425Z,13.97
2018-03-20T11:11:31.912Z,13.88
2018-03-20T11:14:00.150Z,16.03
2018-03-20T11:16:29.050Z,13.60
2018-03-20T11:18:56.488Z,9.90
2018-03-20T11:21:23.964Z,11.23
2018-03-20T11:23:51.441Z,11.00
2018-03-20T11:26:18.897Z,9.13
2018-03-20T11:28:46.345Z,10.60
2018-03-20T11:33:49.630Z,9.07
2018-03-20T11:36:17.111Z,12.33
2018-03-20T11:38:44.579Z,11.27
2018-03-20T11:41:12.046Z,13.00
2018-03-20T11:43:39.504Z,13.00
2018-03-20T11:46:06.949Z,14.80
2018-03-20T11:48:34.395Z,12.37
2018-03-20T11:51:01.869Z,12.57
2018-03-20T11:53:29.307Z,11.37
2018-03-20T11:55:56.789Z,14.30
2018-03-20T11:58:24.233Z,10.50
2018-03-20T12:00:51.681Z,15.90
2018-03-20T12:03:19.132Z,14.60
2018-03-20T12:05:46.601Z,13.73
2018-03-20T12:08:25.947Z,10.67
2018-03-20T12:10:53.409Z,13.30
2018-03-20T12:13:20.843Z,9.33
2018-03-20T12:15:48.302Z,12.07
2018-03-20T12:18:15.763Z,11.77
2018-03-20T12:20:43.242Z,7.93
2018-03-20T12:23:10.692Z,11.97
2018-03-20T12:25:38.912Z,9.80
2018-03-20T12:28:06.377Z,10.00
2018-03-20T12:30:33.832Z,11.07
2018-03-20T12:33:01.350Z,13.57
2018-03-20T12:35:28.819Z,12.90
2018-03-20T12:37:57.081Z,12.60
2018-03-20T12:40:24.534Z,13.00
2018-03-20T12:42:52.000Z,11.80
2018-03-20T12:45:20.989Z,12.80
2018-03-20T12:47:48.592Z,9.63
2018-03-20T12:50:16.045Z,18.47
2018-03-20T12:52:43.505Z,13.20
2018-03-20T12:55:11.012Z,16.13
2018-03-20T12:57:38.471Z,15.70
2018-03-20T13:00:05.924Z,14.23
2018-03-20T13:02:33.389Z,10.23
2018-03-20T13:05:00.846Z,12.63
2018-03-20T13:07:28.300Z,12.43
2018-03-20T13:09:55.754Z,13.30
2018-03-20T13:12:23.986Z,14.95
2018-03-20T13:14:51.436Z,13.07
2018-03-20T13:17:18.907Z,13.57
2018-03-20T13:19:46.343Z,15.17
2018-03-20T13:22:13.823Z,13.65
2018-03-20T13:24:41.264Z,11.50
2018-03-20T13:27:08.759Z,12.37
2018-03-20T13:29:36.225Z,15.13
2018-03-20T13:32:03.684Z,16.97
2018-03-20T13:34:31.144Z,13.87
2018-03-20T13:36:58.602Z,14.97
2018-03-20T13:39:26.052Z,16.10
2018-03-20T13:41:53.531Z,21.57
2018-03-20T13:44:21.753Z,15.30
2018-03-20T13:46:49.223Z,25.97
2018-03-20T13:49:16.683Z,16.50
2018-03-20T13:51:44.141Z,34.73
2018-03-20T13:54:11.621Z,14.67
2018-03-20T13:56:39.086Z,12.70
2018-03-20T13:59:06.602Z,13.50
2018-03-20T14:01:34.064Z,12.73
2018-03-20T14:04:01.516Z,16.70
2018-03-20T14:06:28.987Z,13.60
2018-03-20T14:08:56.435Z,13.20
2018-03-20T14:11:23.895Z,15.80
2018-03-20T14:13:51.339Z,11.90
2018-03-20T14:16:18.820Z,16.13
2018-03-20T14:18:46.261Z,12.80
2018-03-20T14:21:13.714Z,12.37
2018-03-20T14:23:41.168Z,13.53
2018-03-20T14:26:08.708Z,14.13
2018-03-20T14:28:36.323Z,12.27
2018-03-20T14:31:03.775Z,13.90
2018-03-20T14:33:31.242Z,13.77
2018-03-20T14:35:58.721Z,15.97
2018-03-20T14:38:26.973Z,12.73
2018-03-20T14:40:55.209Z,15.13
2018-03-20T14:43:22.709Z,12.90
2018-03-20T14:45:50.175Z,12.57
2018-03-20T14:48:17.649Z,16.90
2018-03-20T14:50:45.938Z,14.00
2018-03-20T14:53:13.349Z,14.53
2018-03-20T14:55:40.827Z,14.30
2018-03-20T14:58:08.282Z,17.40
2018-03-20T15:00:35.738Z,17.57
2018-03-20T15:03:03.208Z,20.50
2018-03-20T15:05:30.723Z,16.95
2018-03-20T15:07:58.189Z,16.87
2018-03-20T15:10:25.659Z,17.50
2018-03-20T15:12:53.135Z,15.63
2018-03-20T15:15:20.591Z,16.35
2018-03-20T15:17:48.065Z,15.93
2018-03-20T15:20:16.289Z,16.83
2018-03-20T15:22:43.752Z,20.43
2018-03-20T15:25:11.217Z,20.13
2018-03-20T15:27:38.673Z,17.37
2018-03-20T15:30:06.137Z,19.97
2018-03-20T15:32:33.606Z,20.03
2018-03-20T15:35:01.054Z,20.37
2018-03-20T15:37:29.299Z,17.93
2018-03-20T15:39:56.751Z,18.07
2018-03-20T15:42:24.221Z,22.93
2018-03-20T15:44:51.684Z,19.80
2018-03-20T15:47:19.961Z,19.73
2018-03-20T15:49:47.442Z,21.70
2018-03-20T15:52:14.890Z,20.03
2018-03-20T15:54:42.341Z,21.63
2018-03-20T15:57:09.804Z,21.97
2018-03-20T15:59:37.256Z,18.30
2018-03-20T16:02:04.718Z,17.40
2018-03-20T16:04:32.188Z,17.73
2018-03-20T16:06:59.672Z,24.37
2018-03-20T16:09:28.197Z,18.75
2018-03-20T16:11:55.677Z,14.30
2018-03-20T16:14:23.146Z,21.93
2018-03-20T16:16:50.641Z,16.17
2018-03-20T16:19:18.869Z,23.43
2018-03-20T16:21:46.315Z,19.40
2018-03-20T16:27:06.569Z,14.20
2018-03-20T16:29:35.192Z,24.27
2018-03-20T16:32:02.667Z,19.70
2018-03-20T16:34:30.112Z,18.00
2018-03-20T16:36:57.568Z,20.37
2018-03-20T16:39:25.025Z,22.30
2018-03-20T16:41:52.481Z,16.80
2018-03-20T16:44:19.949Z,19.87
2018-03-20T16:46:47.398Z,22.60
2018-03-20T16:49:14.852Z,20.33
2018-03-20T16:51:42.326Z,18.27
2018-03-20T16:54:09.779Z,18.57
2018-03-20T16:56:37.234Z,18.13
2018-03-20T16:59:04.698Z,23.13
2018-03-20T17:01:32.178Z,20.87
2018-03-20T17:04:00.409Z,19.95
2018-03-20T17:06:27.893Z,20.00
2018-03-20T17:08:56.132Z,20.97
2018-03-20T17:11:23.576Z,21.03
2018-03-20T17:13:52.193Z,19.42
2018-03-20T17:16:19.662Z,24.00
2018-03-20T17:18:47.150Z,29.20
2018-03-20T17:21:15.387Z,22.43
2018-03-20T17:23:42.836Z,31.17
2018-03-20T17:26:10.308Z,41.90
2018-03-20T17:28:37.768Z,33.70
2018-03-20T17:31:05.292Z,39.63
2018-03-20T17:33:32.714Z,41.57
2018-03-20T17:36:01.864Z,35.07
2018-03-20T17:38:29.349Z,27.67
2018-03-20T17:40:56.806Z,34.03
2018-03-20T17:43:25.040Z,25.37
2018-03-20T17:45:52.488Z,29.73
2018-03-20T17:48:19.959Z,32.70
2018-03-20T17:50:47.411Z,32.27
2018-03-20T17:53:14.900Z,31.43
2018-03-20T17:55:42.364Z,28.80
2018-03-20T17:58:10.306Z,33.67
2018-03-20T18:00:37.781Z,32.53
2018-03-20T18:03:05.234Z,33.33
2018-03-20T18:05:32.862Z,28.70
2018-03-20T18:08:00.334Z,28.93
2018-03-20T18:10:27.784Z,31.13
2018-03-20T18:12:55.242Z,31.70
2018-03-20T18:15:22.696Z,29.37
2018-03-20T18:17:50.146Z,30.90
2018-03-20T18:20:17.610Z,31.80
2018-03-20T18:22:45.148Z,30.90
2018-03-20T18:25:12.561Z,27.10
2018-03-20T18:27:40.016Z,30.33
2018-03-20T18:30:07.507Z,27.80
2018-03-20T18:32:35.732Z,27.07
2018-03-20T18:35:03.211Z,28.63
2018-03-20T18:37:30.662Z,33.00
2018-03-20T18:39:58.195Z,28.40
2018-03-20T18:42:28.003Z,29.05
2018-03-20T18:44:55.458Z,29.00
2018-03-20T18:47:22.904Z,30.03
2018-03-20T18:49:50.365Z,29.87
2018-03-20T18:52:17.819Z,33.17
2018-03-20T18:54:45.282Z,39.35
2018-03-20T18:57:12.736Z,33.33
2018-03-20T18:59:40.205Z,23.07
2018-03-20T19:02:07.661Z,26.97
2018-03-20T19:04:36.056Z,24.90
2018-03-20T19:07:03.518Z,30.40
2018-03-20T19:09:31.902Z,24.40
2018-03-20T19:11:59.350Z,25.67
2018-03-20T19:14:26.812Z,29.20
2018-03-20T19:16:54.282Z,30.67
2018-03-20T19:19:21.722Z,38.27
2018-03-20T19:34:50.840Z,24.27
2018-03-20T19:37:19.056Z,26.47
2018-03-20T19:39:46.514Z,27.05
2018-03-20T19:42:13.951Z,25.27
2018-03-20T19:44:41.401Z,31.80
2018-03-20T19:47:09.637Z,24.73
2018-03-20T19:49:37.109Z,24.50
2018-03-20T19:52:04.567Z,27.00
2018-03-20T19:54:32.025Z,25.80
2018-03-20T19:56:59.476Z,26.33
2018-03-20T19:59:26.949Z,27.93
2018-03-20T20:01:54.429Z,30.70
2018-03-20T20:04:22.667Z,29.17
2018-03-20T20:06:50.123Z,32.23
2018-03-20T20:09:17.678Z,27.10
2018-03-20T20:11:45.142Z,29.57
2018-03-20T20:14:12.694Z,33.30
2018-03-20T20:16:40.150Z,32.53
2018-03-20T20:19:07.602Z,27.80
2018-03-20T20:21:35.067Z,25.30
2018-03-20T20:24:02.527Z,30.33
2018-03-20T20:26:29.984Z,30.40
2018-03-20T20:28:57.449Z,32.13
2018-03-20T20:31:26.427Z,34.70
2018-03-20T20:33:53.881Z,30.60
2018-03-20T20:36:21.337Z,39.93
2018-03-20T20:38:48.785Z,34.47
2018-03-20T20:41:16.245Z,30.33
2018-03-20T20:43:43.704Z,24.70
2018-03-20T20:46:11.163Z,30.17
2018-03-20T20:48:38.626Z,31.80
2018-03-20T20:51:06.206Z,30.10
2018-03-20T20:53:33.667Z,25.77
2018-03-20T20:56:01.125Z,28.33
2018-03-20T20:58:29.344Z,31.77
2018-03-20T21:00:56.810Z,28.50
2018-03-20T21:03:27.896Z,30.60
2018-03-20T21:05:55.360Z,36.47
2018-03-20T21:08:23.676Z,34.27
2018-03-20T21:10:51.133Z,23.93
2018-03-20T21:13:19.247Z,27.97
2018-03-20T21:15:46.712Z,26.73
2018-03-20T21:18:14.161Z,20.73
2018-03-20T21:20:41.609Z,40.13
2018-03-20T21:23:09.068Z,32.00
2018-03-20T21:25:36.516Z,31.62
2018-03-20T21:28:04.056Z,35.23
2018-03-20T21:30:31.456Z,34.33
2018-03-20T21:32:58.917Z,31.87
2018-03-20T21:35:27.290Z,29.60
2018-03-20T21:37:54.762Z,30.93
2018-03-20T21:40:23.001Z,34.00
2018-03-20T21:42:50.464Z,24.87
2018-03-20T21:45:17.917Z,33.57
2018-03-20T21:47:45.372Z,26.50
2018-03-20T21:50:12.833Z,27.70
2018-03-20T21:52:41.060Z,29.73
2018-03-20T21:55:08.500Z,22.87
2018-03-20T21:57:37.374Z,28.98
2018-03-20T22:00:04.837Z,24.23
2018-03-20T22:02:33.069Z,19.33
2018-03-20T22:05:00.533Z,21.57
2018-03-20T22:07:28.005Z,23.03
2018-03-20T22:09:55.458Z,18.90
2018-03-20T22:12:22.928Z,19.83
2018-03-20T22:14:50.428Z,23.10
2018-03-20T22:17:18.665Z,22.13
2018-03-20T22:19:47.015Z,22.67
2018-03-20T22:22:14.472Z,21.73
2018-03-20T22:24:41.930Z,18.43
2018-03-20T22:27:09.402Z,27.03
2018-03-20T22:29:36.847Z,19.33
2018-03-20T22:32:04.313Z,18.30
2018-03-20T22:34:31.772Z,17.33
2018-03-20T22:36:59.228Z,19.70
2018-03-20T22:39:26.685Z,19.67
2018-03-20T22:41:55.075Z,20.63
2018-03-20T22:44:22.543Z,19.40
2018-03-20T22:46:49.993Z,17.33
2018-03-20T22:49:17.444Z,24.37
2018-03-20T22:51:44.892Z,15.63
2018-03-20T22:54:12.348Z,18.87
2018-03-20T22:56:39.829Z,17.50
2018-03-20T22:59:07.280Z,13.03
2018-03-20T23:01:36.238Z,15.83
2018-03-20T23:04:05.065Z,16.40
2018-03-20T23:06:32.508Z,15.67
2018-03-20T23:08:59.982Z,18.40
2018-03-20T23:11:27.420Z,15.50
2018-03-20T23:13:54.880Z,15.90
2018-03-20T23:16:22.344Z,15.90
2018-03-20T23:18:49.800Z,13.57
2018-03-20T23:21:17.253Z,16.20
2018-03-20T23:23:44.709Z,15.10
2018-03-20T23:26:12.253Z,15.17
2018-03-20T23:28:39.712Z,16.47
2018-03-20T23:31:07.165Z,16.60
2018-03-20T23:33:34.614Z,15.90
2018-03-20T23:36:02.069Z,19.10
2018-03-20T23:38:29.527Z,14.20
2018-03-20T23:40:56.982Z,19.07
2018-03-20T23:43:24.448Z,13.33
2018-03-20T23:45:51.900Z,13.60
2018-03-20T23:48:20.379Z,11.20
2018-03-20T23:50:47.818Z,9.50
2018-03-20T23:53:15.293Z,11.20
2018-03-20T23:55:42.727Z,10.00
2018-03-20T23:58:10.193Z,10.57
